Route Details

Aircraft Information
Group: Equipment Varies
Types: A30F, A31F, B738, B744, B752, B762, B763, MD11
Route Data
Distance: 574nm
Duration: 2h 14m
Origin METAR: KJFK 010451Z 04010KT 10SM BKN034 OVC060 M01/M08 A3022 RMK AO2 SLP234 T10061083 400721006
Dest. METAR: KSDF 010456Z 00000KT 10SM FEW050 OVC065 M02/M07 A3034 RMK AO2 SLP279 T10221067 410111039 $
Freight Data
(for Feb 1, 2023)
Load Factor:
53%
Manifested Cargo: 77,991lbs
Financial History
Total Freight: 362,881lbs
Average Load: 0lbs/flt
Fuel Used: 62,500lbs
Avg. Fuel Used: 0lbs/flt
Fuel Expense: $44,189
Avg. Fuel Expense: $0
Avg. Fuel Cost: $0/lbs
Total Gross Income: $847,503
Pilot Pay: $1,006
Total Expenses: $152,209
Total Revenue: $648,109
Average Revenue: $0

Capitol Logistics 484




KJFK
John F Kennedy International Airport
New York, New York
KSDF
Muhammad Ali International Airport
Louisville, Kentucky

Activity Log

Date Flight Route Aircraft Duration
01/17/2023 CPX484 SKORR5 RNGRR DCT RBV Q430 SAAME J6 HVQ Q68 UNCKL MAUDD6 B738 2h 04m
11/15/2022 CPX484 DEEZZ5 TOWIN DCT SAAME J6 HVQ Q68 UNCKL MAUDD6 B763 2h 08m
07/18/2022 CPX484 DCT RBV Q430 AIR DCT UKATS DLAMP6 B763 1h 35m
11/28/2019 CPX2296 KJFK/22R DEEZZ5 CANDR HOTEE Q42 HIDON UKATS DLAMP6 KSDF/FINCH.R29 B763 2h 22m